This is the latest recevied weather packets stored in our database for station/object KB3UQE. If no packets are shown the sender has not sent any weather packets the latest 10 day(s).
| Time | Temp. | Humidity | Pressure | Rain* | Wind** | Luminosity | Snow |
|---|---|---|---|---|---|---|---|
| 1777756700 | 34.44° C | 25% | 1010.4 hPa | - | - | - | - |
| 1777755284 | 34.44° C | 25% | 1010.4 hPa | - | - | - | - |
| 1777755259 | 33.89° C | 26% | 1010.3 hPa | - | - | - | - |
| 1777753844 | 33.89° C | 26% | 1010.3 hPa | - | - | - | - |
| 1777753819 | 33.89° C | 27% | 1010.4 hPa | - | - | - | - |
| 1777752584 | 33.89° C | 27% | 1010.4 hPa | - | - | - | - |
| 1777752559 | 20.56° C | 59% | 1006.8 hPa | - | - | - | - |
| 1777751479 | 20.56° C | 59% | 1006.8 hPa | - | - | - | - |
| 1777750426 | 20.56° C | 59% | 1006.8 hPa | - | - | - | - |
| 1777750185 | 20.56° C | 59% | 1006.8 hPa | - | - | - | - |
| 1777552744 | 20.56° C | 59% | 1006.8 hPa | - | - | - | - |
| 1777552571 | 20.56° C | 59% | 1006.8 hPa | - | - | - | - |
| 1777551303 | 20° C | 59% | 1007 hPa | - | - | - | - |
| 1777551131 | 20° C | 59% | 1007 hPa | - | - | - | - |
| 1777549864 | 19.44° C | 61% | 1007 hPa | - | - | - | - |
| 1777549691 | 19.44° C | 61% | 1007 hPa | - | - | - | - |
| 1777548423 | 15° C | 72% | 1007.2 hPa | - | - | - | - |
| 1777548251 | 15° C | 72% | 1007.2 hPa | - | - | - | - |
| 1777546623 | 13.33° C | 74% | 1006.7 hPa | - | - | - | - |
| 1777546450 | 13.33° C | 74% | 1006.7 hPa | - | - | - | - |
| 1777544823 | 11.67° C | 75% | 1006.6 hPa | - | - | - | - |
| 1777544650 | 11.67° C | 75% | 1006.6 hPa | - | - | - | - |
| 1777543023 | 11.11° C | 74% | 1006.6 hPa | - | - | - | - |
| 1777542850 | 11.11° C | 74% | 1006.6 hPa | - | - | - | - |
| 1777541222 | 11.67° C | 74% | 1006.6 hPa | - | - | - | - |
* Rain since midnight (hover to see other rain measurements)
** Current wind speed in m/s (hover to see current wind gust speed)